sensor_id;sensor_type;location;lat;lon;timestamp;pressure;altitude;pressure_sealevel;temperature;humidity
62632;BME280;48703;51.248;-0.546;2023-01-31T00:01:33;102121;;;3.77;86.24
62632;BME280;48703;51.248;-0.546;2023-01-31T00:04:34;102118;;;3.78;86.29
62632;BME280;48703;51.248;-0.546;2023-01-31T00:07:36;102120;;;3.79;86.39
62632;BME280;48703;51.248;-0.546;2023-01-31T00:10:38;102126;;;3.81;86.79
62632;BME280;48703;51.248;-0.546;2023-01-31T00:13:40;102132;;;3.82;86.57
62632;BME280;48703;51.248;-0.546;2023-01-31T00:16:42;102125;;;3.83;86.47
62632;BME280;48703;51.248;-0.546;2023-01-31T00:19:44;102121;;;3.84;86.45
62632;BME280;48703;51.248;-0.546;2023-01-31T00:22:46;102119;;;3.85;86.45
62632;BME280;48703;51.248;-0.546;2023-01-31T00:25:48;102113;;;3.85;86.39
62632;BME280;48703;51.248;-0.546;2023-01-31T00:28:50;102096;;;3.86;86.27
62632;BME280;48703;51.248;-0.546;2023-01-31T00:31:51;102075;;;3.86;86.43
62632;BME280;48703;51.248;-0.546;2023-01-31T00:34:53;102070;;;3.86;86.73
62632;BME280;48703;51.248;-0.546;2023-01-31T00:37:55;102069;;;3.86;86.87
62632;BME280;48703;51.248;-0.546;2023-01-31T00:40:57;102062;;;3.88;86.88
62632;BME280;48703;51.248;-0.546;2023-01-31T00:43:59;102064;;;3.90;86.92
62632;BME280;48703;51.248;-0.546;2023-01-31T00:47:01;102065;;;3.92;86.84
62632;BME280;48703;51.248;-0.546;2023-01-31T00:50:03;102064;;;3.94;86.78
62632;BME280;48703;51.248;-0.546;2023-01-31T00:53:05;102067;;;3.96;86.79
62632;BME280;48703;51.248;-0.546;2023-01-31T00:56:08;102069;;;3.97;86.75
62632;BME280;48703;51.248;-0.546;2023-01-31T00:59:09;102077;;;3.98;86.79
62632;BME280;48703;51.248;-0.546;2023-01-31T01:02:10;102077;;;3.99;86.95
62632;BME280;48703;51.248;-0.546;2023-01-31T01:05:12;102073;;;3.98;86.77
62632;BME280;48703;51.248;-0.546;2023-01-31T01:08:14;102068;;;3.99;86.93
62632;BME280;48703;51.248;-0.546;2023-01-31T01:11:17;102067;;;3.99;86.73
62632;BME280;48703;51.248;-0.546;2023-01-31T01:14:18;102068;;;3.99;86.70
62632;BME280;48703;51.248;-0.546;2023-01-31T01:17:20;102069;;;4.00;86.79
62632;BME280;48703;51.248;-0.546;2023-01-31T01:20:22;102064;;;4.02;86.75
62632;BME280;48703;51.248;-0.546;2023-01-31T01:23:24;102062;;;4.05;86.73
62632;BME280;48703;51.248;-0.546;2023-01-31T01:26:26;102057;;;4.07;86.77
62632;BME280;48703;51.248;-0.546;2023-01-31T01:29:27;102047;;;4.09;86.74
62632;BME280;48703;51.248;-0.546;2023-01-31T01:32:29;102055;;;4.12;86.86
62632;BME280;48703;51.248;-0.546;2023-01-31T01:35:31;102061;;;4.12;86.81
62632;BME280;48703;51.248;-0.546;2023-01-31T01:38:33;102060;;;4.14;86.82
62632;BME280;48703;51.248;-0.546;2023-01-31T01:41:35;102059;;;4.15;86.69
62632;BME280;48703;51.248;-0.546;2023-01-31T01:44:46;102056;;;4.16;86.76
62632;BME280;48703;51.248;-0.546;2023-01-31T01:47:41;102055;;;4.16;86.77
62632;BME280;48703;51.248;-0.546;2023-01-31T01:50:41;102048;;;4.19;86.87
62632;BME280;48703;51.248;-0.546;2023-01-31T01:53:43;102047;;;4.20;86.80
62632;BME280;48703;51.248;-0.546;2023-01-31T01:56:45;102046;;;4.20;86.79
62632;BME280;48703;51.248;-0.546;2023-01-31T01:59:48;102049;;;4.20;86.85
62632;BME280;48703;51.248;-0.546;2023-01-31T02:02:49;102053;;;4.20;86.88
62632;BME280;48703;51.248;-0.546;2023-01-31T02:05:50;102053;;;4.21;86.84
62632;BME280;48703;51.248;-0.546;2023-01-31T02:08:52;102056;;;4.22;86.86
62632;BME280;48703;51.248;-0.546;2023-01-31T02:11:54;102053;;;4.21;86.76
62632;BME280;48703;51.248;-0.546;2023-01-31T02:14:56;102044;;;4.20;86.71
62632;BME280;48703;51.248;-0.546;2023-01-31T02:17:58;102047;;;4.19;86.68
62632;BME280;48703;51.248;-0.546;2023-01-31T02:21:11;102051;;;4.18;86.61
62632;BME280;48703;51.248;-0.546;2023-01-31T02:24:21;102046;;;4.18;86.53
62632;BME280;48703;51.248;-0.546;2023-01-31T02:27:23;102039;;;4.15;86.64
62632;BME280;48703;51.248;-0.546;2023-01-31T02:30:12;102036;;;4.13;86.80
62632;BME280;48703;51.248;-0.546;2023-01-31T02:33:11;102034;;;4.12;86.71
62632;BME280;48703;51.248;-0.546;2023-01-31T02:36:12;102032;;;4.13;87.02
62632;BME280;48703;51.248;-0.546;2023-01-31T02:39:12;102029;;;4.14;87.02
62632;BME280;48703;51.248;-0.546;2023-01-31T02:42:15;102035;;;4.15;87.10
62632;BME280;48703;51.248;-0.546;2023-01-31T02:45:17;102031;;;4.17;87.38
62632;BME280;48703;51.248;-0.546;2023-01-31T02:48:18;102022;;;4.19;87.14
62632;BME280;48703;51.248;-0.546;2023-01-31T02:51:19;102017;;;4.21;87.18
62632;BME280;48703;51.248;-0.546;2023-01-31T02:54:22;102010;;;4.23;87.10
62632;BME280;48703;51.248;-0.546;2023-01-31T02:57:23;102004;;;4.25;87.18
62632;BME280;48703;51.248;-0.546;2023-01-31T03:00:25;101998;;;4.26;87.11
62632;BME280;48703;51.248;-0.546;2023-01-31T03:03:27;102004;;;4.30;87.43
62632;BME280;48703;51.248;-0.546;2023-01-31T03:07:01;102005;;;4.32;87.23
62632;BME280;48703;51.248;-0.546;2023-01-31T03:09:32;102002;;;4.35;87.21
62632;BME280;48703;51.248;-0.546;2023-01-31T03:12:40;102000;;;4.36;87.23
62632;BME280;48703;51.248;-0.546;2023-01-31T03:15:36;102000;;;4.38;87.22
62632;BME280;48703;51.248;-0.546;2023-01-31T03:18:38;102002;;;4.40;87.11
62632;BME280;48703;51.248;-0.546;2023-01-31T03:21:39;101996;;;4.41;87.04
62632;BME280;48703;51.248;-0.546;2023-01-31T03:24:40;101992;;;4.42;87.03
62632;BME280;48703;51.248;-0.546;2023-01-31T03:27:43;101986;;;4.44;87.33
62632;BME280;48703;51.248;-0.546;2023-01-31T03:30:45;101985;;;4.46;87.23
62632;BME280;48703;51.248;-0.546;2023-01-31T03:33:47;101990;;;4.50;87.43
62632;BME280;48703;51.248;-0.546;2023-01-31T03:36:49;101982;;;4.54;87.46
62632;BME280;48703;51.248;-0.546;2023-01-31T03:39:51;101978;;;4.59;87.32
62632;BME280;48703;51.248;-0.546;2023-01-31T03:42:52;101980;;;4.63;87.22
62632;BME280;48703;51.248;-0.546;2023-01-31T03:45:54;101985;;;4.66;87.18
62632;BME280;48703;51.248;-0.546;2023-01-31T03:48:55;101978;;;4.71;87.13
62632;BME280;48703;51.248;-0.546;2023-01-31T03:51:57;101962;;;4.75;87.07
62632;BME280;48703;51.248;-0.546;2023-01-31T03:54:59;101952;;;4.78;87.02
62632;BME280;48703;51.248;-0.546;2023-01-31T03:58:01;101950;;;4.81;87.02
62632;BME280;48703;51.248;-0.546;2023-01-31T04:01:03;101941;;;4.83;87.02
62632;BME280;48703;51.248;-0.546;2023-01-31T04:04:06;101927;;;4.86;86.87
62632;BME280;48703;51.248;-0.546;2023-01-31T04:07:06;101930;;;4.87;86.89
62632;BME280;48703;51.248;-0.546;2023-01-31T04:10:11;101929;;;4.88;86.87
62632;BME280;48703;51.248;-0.546;2023-01-31T04:13:10;101930;;;4.90;86.82
62632;BME280;48703;51.248;-0.546;2023-01-31T04:16:12;101933;;;4.92;86.82
62632;BME280;48703;51.248;-0.546;2023-01-31T04:19:14;101934;;;4.92;86.81
62632;BME280;48703;51.248;-0.546;2023-01-31T04:22:16;101935;;;4.93;86.83
62632;BME280;48703;51.248;-0.546;2023-01-31T04:25:18;101933;;;4.94;86.90
62632;BME280;48703;51.248;-0.546;2023-01-31T04:28:19;101937;;;4.96;86.97
62632;BME280;48703;51.248;-0.546;2023-01-31T04:31:21;101938;;;4.97;87.03
62632;BME280;48703;51.248;-0.546;2023-01-31T04:34:23;101934;;;4.99;86.92
62632;BME280;48703;51.248;-0.546;2023-01-31T04:37:25;101938;;;5.00;86.94
62632;BME280;48703;51.248;-0.546;2023-01-31T04:40:27;101935;;;5.00;87.13
62632;BME280;48703;51.248;-0.546;2023-01-31T04:43:29;101939;;;5.02;87.21
62632;BME280;48703;51.248;-0.546;2023-01-31T04:46:31;101946;;;5.04;87.23
62632;BME280;48703;51.248;-0.546;2023-01-31T04:49:33;101949;;;5.06;87.26
62632;BME280;48703;51.248;-0.546;2023-01-31T04:52:35;101949;;;5.06;87.18
62632;BME280;48703;51.248;-0.546;2023-01-31T04:55:36;101945;;;5.07;87.26
62632;BME280;48703;51.248;-0.546;2023-01-31T04:58:38;101945;;;5.10;87.57
62632;BME280;48703;51.248;-0.546;2023-01-31T05:01:40;101946;;;5.12;87.48
62632;BME280;48703;51.248;-0.546;2023-01-31T05:04:42;101944;;;5.15;87.41
62632;BME280;48703;51.248;-0.546;2023-01-31T05:07:44;101943;;;5.17;87.48
62632;BME280;48703;51.248;-0.546;2023-01-31T05:10:46;101944;;;5.19;87.47
62632;BME280;48703;51.248;-0.546;2023-01-31T05:13:48;101944;;;5.21;87.55
62632;BME280;48703;51.248;-0.546;2023-01-31T05:16:50;101939;;;5.22;87.51
62632;BME280;48703;51.248;-0.546;2023-01-31T05:19:52;101946;;;5.23;87.46
62632;BME280;48703;51.248;-0.546;2023-01-31T05:22:54;101950;;;5.24;87.46
62632;BME280;48703;51.248;-0.546;2023-01-31T05:25:55;101947;;;5.24;87.36
62632;BME280;48703;51.248;-0.546;2023-01-31T05:28:57;101947;;;5.25;87.37
62632;BME280;48703;51.248;-0.546;2023-01-31T05:32:00;101935;;;5.25;87.57
62632;BME280;48703;51.248;-0.546;2023-01-31T05:35:01;101939;;;5.25;87.72
62632;BME280;48703;51.248;-0.546;2023-01-31T05:38:03;101939;;;5.26;87.56
62632;BME280;48703;51.248;-0.546;2023-01-31T05:41:05;101932;;;5.26;87.87
62632;BME280;48703;51.248;-0.546;2023-01-31T05:44:07;101929;;;5.27;87.72
62632;BME280;48703;51.248;-0.546;2023-01-31T05:47:09;101931;;;5.29;88.01
62632;BME280;48703;51.248;-0.546;2023-01-31T05:50:11;101948;;;5.30;88.11
62632;BME280;48703;51.248;-0.546;2023-01-31T05:53:12;101950;;;5.31;88.17
62632;BME280;48703;51.248;-0.546;2023-01-31T05:56:14;101949;;;5.32;88.02
62632;BME280;48703;51.248;-0.546;2023-01-31T05:59:16;101939;;;5.34;88.18
62632;BME280;48703;51.248;-0.546;2023-01-31T06:02:18;101935;;;5.33;87.96
62632;BME280;48703;51.248;-0.546;2023-01-31T06:05:20;101931;;;5.33;88.17
62632;BME280;48703;51.248;-0.546;2023-01-31T06:08:22;101914;;;5.31;88.06
62632;BME280;48703;51.248;-0.546;2023-01-31T06:11:24;101904;;;5.31;88.05
62632;BME280;48703;51.248;-0.546;2023-01-31T06:14:26;101901;;;5.31;88.16
62632;BME280;48703;51.248;-0.546;2023-01-31T06:17:28;101900;;;5.30;88.06
62632;BME280;48703;51.248;-0.546;2023-01-31T06:20:30;101898;;;5.30;88.32
62632;BME280;48703;51.248;-0.546;2023-01-31T06:23:31;101896;;;5.29;88.15
62632;BME280;48703;51.248;-0.546;2023-01-31T06:26:33;101900;;;5.28;88.14
62632;BME280;48703;51.248;-0.546;2023-01-31T06:29:35;101899;;;5.27;88.13
62632;BME280;48703;51.248;-0.546;2023-01-31T06:32:37;101894;;;5.25;88.09
62632;BME280;48703;51.248;-0.546;2023-01-31T06:35:39;101894;;;5.24;88.15
62632;BME280;48703;51.248;-0.546;2023-01-31T06:38:41;101892;;;5.24;88.20
62632;BME280;48703;51.248;-0.546;2023-01-31T06:41:43;101894;;;5.24;88.12
62632;BME280;48703;51.248;-0.546;2023-01-31T06:44:45;101890;;;5.24;88.05
62632;BME280;48703;51.248;-0.546;2023-01-31T06:47:47;101889;;;5.25;88.32
62632;BME280;48703;51.248;-0.546;2023-01-31T06:50:48;101900;;;5.27;88.42
62632;BME280;48703;51.248;-0.546;2023-01-31T06:53:50;101896;;;5.29;88.38
62632;BME280;48703;51.248;-0.546;2023-01-31T06:56:52;101898;;;5.32;88.33
62632;BME280;48703;51.248;-0.546;2023-01-31T06:59:54;101897;;;5.33;88.31
62632;BME280;48703;51.248;-0.546;2023-01-31T07:02:56;101897;;;5.34;88.11
62632;BME280;48703;51.248;-0.546;2023-01-31T07:05:58;101898;;;5.35;88.13
62632;BME280;48703;51.248;-0.546;2023-01-31T07:09:00;101895;;;5.38;88.24
62632;BME280;48703;51.248;-0.546;2023-01-31T07:12:02;101895;;;5.38;88.08
62632;BME280;48703;51.248;-0.546;2023-01-31T07:15:04;101900;;;5.37;87.93
62632;BME280;48703;51.248;-0.546;2023-01-31T07:18:06;101898;;;5.36;88.06
62632;BME280;48703;51.248;-0.546;2023-01-31T07:21:07;101898;;;5.35;88.02
62632;BME280;48703;51.248;-0.546;2023-01-31T07:24:09;101889;;;5.35;87.95
62632;BME280;48703;51.248;-0.546;2023-01-31T07:27:11;101874;;;5.34;88.03
62632;BME280;48703;51.248;-0.546;2023-01-31T07:30:13;101874;;;5.34;87.95
62632;BME280;48703;51.248;-0.546;2023-01-31T07:33:15;101876;;;5.33;87.92
62632;BME280;48703;51.248;-0.546;2023-01-31T07:36:17;101880;;;5.32;87.82
62632;BME280;48703;51.248;-0.546;2023-01-31T07:39:19;101877;;;5.32;87.87
62632;BME280;48703;51.248;-0.546;2023-01-31T07:42:21;101879;;;5.32;87.85
62632;BME280;48703;51.248;-0.546;2023-01-31T07:45:23;101881;;;5.31;87.92
62632;BME280;48703;51.248;-0.546;2023-01-31T07:48:24;101871;;;5.30;88.02
62632;BME280;48703;51.248;-0.546;2023-01-31T07:51:26;101869;;;5.30;88.30
62632;BME280;48703;51.248;-0.546;2023-01-31T07:54:28;101854;;;5.31;88.31
62632;BME280;48703;51.248;-0.546;2023-01-31T07:57:30;101850;;;5.33;88.70
62632;BME280;48703;51.248;-0.546;2023-01-31T08:00:32;101855;;;5.37;88.78
62632;BME280;48703;51.248;-0.546;2023-01-31T08:03:34;101859;;;5.39;88.69
62632;BME280;48703;51.248;-0.546;2023-01-31T08:06:36;101857;;;5.41;88.66
62632;BME280;48703;51.248;-0.546;2023-01-31T08:09:38;101865;;;5.43;88.80
62632;BME280;48703;51.248;-0.546;2023-01-31T08:12:40;101871;;;5.46;88.80
62632;BME280;48703;51.248;-0.546;2023-01-31T08:15:42;101865;;;5.47;88.71
62632;BME280;48703;51.248;-0.546;2023-01-31T08:18:43;101863;;;5.50;88.99
62632;BME280;48703;51.248;-0.546;2023-01-31T08:21:45;101872;;;5.54;89.19
62632;BME280;48703;51.248;-0.546;2023-01-31T08:24:47;101867;;;5.57;89.11
62632;BME280;48703;51.248;-0.546;2023-01-31T08:27:49;101864;;;5.59;88.98
62632;BME280;48703;51.248;-0.546;2023-01-31T08:30:51;101861;;;5.63;89.41
62632;BME280;48703;51.248;-0.546;2023-01-31T08:33:53;101855;;;5.67;89.29
62632;BME280;48703;51.248;-0.546;2023-01-31T08:36:55;101851;;;5.71;89.25
62632;BME280;48703;51.248;-0.546;2023-01-31T08:39:57;101850;;;5.75;89.29
62632;BME280;48703;51.248;-0.546;2023-01-31T08:42:59;101845;;;5.78;89.44
62632;BME280;48703;51.248;-0.546;2023-01-31T08:46:00;101850;;;5.82;89.24
62632;BME280;48703;51.248;-0.546;2023-01-31T08:49:04;101850;;;5.86;89.25
62632;BME280;48703;51.248;-0.546;2023-01-31T08:52:04;101861;;;5.89;89.26
62632;BME280;48703;51.248;-0.546;2023-01-31T08:55:06;101855;;;5.93;89.34
62632;BME280;48703;51.248;-0.546;2023-01-31T08:58:08;101845;;;5.96;89.36
62632;BME280;48703;51.248;-0.546;2023-01-31T09:01:11;101828;;;5.99;89.28
62632;BME280;48703;51.248;-0.546;2023-01-31T09:04:12;101833;;;6.03;89.31
62632;BME280;48703;51.248;-0.546;2023-01-31T09:07:14;101847;;;6.09;89.64
62632;BME280;48703;51.248;-0.546;2023-01-31T09:10:16;101855;;;6.14;89.63
62632;BME280;48703;51.248;-0.546;2023-01-31T09:13:18;101836;;;6.18;89.65
62632;BME280;48703;51.248;-0.546;2023-01-31T09:16:19;101847;;;6.22;89.71
62632;BME280;48703;51.248;-0.546;2023-01-31T09:19:21;101849;;;6.26;89.48
62632;BME280;48703;51.248;-0.546;2023-01-31T09:22:23;101838;;;6.31;89.53
62632;BME280;48703;51.248;-0.546;2023-01-31T09:25:25;101836;;;6.35;89.50
62632;BME280;48703;51.248;-0.546;2023-01-31T09:28:27;101840;;;6.40;89.75
62632;BME280;48703;51.248;-0.546;2023-01-31T09:31:29;101844;;;6.47;89.62
62632;BME280;48703;51.248;-0.546;2023-01-31T09:34:31;101836;;;6.52;89.77
62632;BME280;48703;51.248;-0.546;2023-01-31T09:37:33;101837;;;6.60;89.61
62632;BME280;48703;51.248;-0.546;2023-01-31T09:40:37;101831;;;6.67;89.70
62632;BME280;48703;51.248;-0.546;2023-01-31T09:43:37;101822;;;6.77;89.94
62632;BME280;48703;51.248;-0.546;2023-01-31T09:46:39;101830;;;6.86;89.69
62632;BME280;48703;51.248;-0.546;2023-01-31T09:49:41;101832;;;6.94;89.44
62632;BME280;48703;51.248;-0.546;2023-01-31T09:52:42;101832;;;7.02;89.49
62632;BME280;48703;51.248;-0.546;2023-01-31T09:55:45;101835;;;7.08;89.27
62632;BME280;48703;51.248;-0.546;2023-01-31T09:58:49;101841;;;7.16;89.52
62632;BME280;48703;51.248;-0.546;2023-01-31T10:01:50;101846;;;7.20;89.33
62632;BME280;48703;51.248;-0.546;2023-01-31T10:04:55;101850;;;7.24;89.37
62632;BME280;48703;51.248;-0.546;2023-01-31T10:07:54;101852;;;7.27;89.51
62632;BME280;48703;51.248;-0.546;2023-01-31T10:10:55;101857;;;7.30;89.50
62632;BME280;48703;51.248;-0.546;2023-01-31T10:13:57;101861;;;7.36;89.58
62632;BME280;48703;51.248;-0.546;2023-01-31T10:16:59;101869;;;7.41;89.61
62632;BME280;48703;51.248;-0.546;2023-01-31T10:20:00;101874;;;7.45;89.76
62632;BME280;48703;51.248;-0.546;2023-01-31T10:23:02;101874;;;7.48;89.72
62632;BME280;48703;51.248;-0.546;2023-01-31T10:26:04;101878;;;7.49;89.60
62632;BME280;48703;51.248;-0.546;2023-01-31T10:29:08;101882;;;7.51;89.62
62632;BME280;48703;51.248;-0.546;2023-01-31T10:32:10;101881;;;7.53;89.76
62632;BME280;48703;51.248;-0.546;2023-01-31T10:35:11;101880;;;7.55;89.50
62632;BME280;48703;51.248;-0.546;2023-01-31T10:38:12;101887;;;7.58;89.81
62632;BME280;48703;51.248;-0.546;2023-01-31T10:41:13;101884;;;7.62;89.76
62632;BME280;48703;51.248;-0.546;2023-01-31T10:44:17;101886;;;7.66;89.89
62632;BME280;48703;51.248;-0.546;2023-01-31T10:47:17;101886;;;7.71;89.90
62632;BME280;48703;51.248;-0.546;2023-01-31T10:50:19;101877;;;7.77;90.04
62632;BME280;48703;51.248;-0.546;2023-01-31T10:53:26;101871;;;7.85;90.09
62632;BME280;48703;51.248;-0.546;2023-01-31T10:56:24;101865;;;7.92;90.03
62632;BME280;48703;51.248;-0.546;2023-01-31T10:59:25;101867;;;7.99;89.84
62632;BME280;48703;51.248;-0.546;2023-01-31T11:02:27;101868;;;8.06;89.84
62632;BME280;48703;51.248;-0.546;2023-01-31T11:05:28;101861;;;8.10;89.34
62632;BME280;48703;51.248;-0.546;2023-01-31T11:08:32;101858;;;8.14;89.33
62632;BME280;48703;51.248;-0.546;2023-01-31T11:11:32;101858;;;8.20;89.49
62632;BME280;48703;51.248;-0.546;2023-01-31T11:14:34;101850;;;8.24;89.06
62632;BME280;48703;51.248;-0.546;2023-01-31T11:17:35;101841;;;8.25;88.95
62632;BME280;48703;51.248;-0.546;2023-01-31T11:20:43;101836;;;8.27;88.89
62632;BME280;48703;51.248;-0.546;2023-01-31T11:23:42;101834;;;8.29;88.94
62632;BME280;48703;51.248;-0.546;2023-01-31T11:26:42;101834;;;8.31;88.88
62632;BME280;48703;51.248;-0.546;2023-01-31T11:29:44;101834;;;8.34;88.77
62632;BME280;48703;51.248;-0.546;2023-01-31T11:32:45;101830;;;8.39;88.71
62632;BME280;48703;51.248;-0.546;2023-01-31T11:35:50;101820;;;8.44;88.64
62632;BME280;48703;51.248;-0.546;2023-01-31T11:38:49;101816;;;8.51;88.62
62632;BME280;48703;51.248;-0.546;2023-01-31T11:41:51;101810;;;8.57;88.33
62632;BME280;48703;51.248;-0.546;2023-01-31T11:44:53;101804;;;8.65;88.23
62632;BME280;48703;51.248;-0.546;2023-01-31T11:47:55;101807;;;8.71;88.10
62632;BME280;48703;51.248;-0.546;2023-01-31T11:50:57;101814;;;8.77;88.00
62632;BME280;48703;51.248;-0.546;2023-01-31T11:53:58;101806;;;8.84;87.81
62632;BME280;48703;51.248;-0.546;2023-01-31T11:57:00;101802;;;8.92;87.45
62632;BME280;48703;51.248;-0.546;2023-01-31T12:00:03;101794;;;8.96;87.53
62632;BME280;48703;51.248;-0.546;2023-01-31T12:03:05;101781;;;9.00;87.37
62632;BME280;48703;51.248;-0.546;2023-01-31T12:06:06;101773;;;9.03;87.24
62632;BME280;48703;51.248;-0.546;2023-01-31T12:09:17;101770;;;9.07;87.16
62632;BME280;48703;51.248;-0.546;2023-01-31T12:12:26;101771;;;9.13;86.91
62632;BME280;48703;51.248;-0.546;2023-01-31T12:15:13;101772;;;9.18;86.50
62632;BME280;48703;51.248;-0.546;2023-01-31T12:18:13;101777;;;9.25;86.32
62632;BME280;48703;51.248;-0.546;2023-01-31T12:21:16;101769;;;9.32;86.38
62632;BME280;48703;51.248;-0.546;2023-01-31T12:24:20;101766;;;9.35;86.02
62632;BME280;48703;51.248;-0.546;2023-01-31T12:27:24;101762;;;9.40;85.55
62632;BME280;48703;51.248;-0.546;2023-01-31T12:30:24;101760;;;9.42;85.19
62632;BME280;48703;51.248;-0.546;2023-01-31T12:33:31;101763;;;9.42;85.43
62632;BME280;48703;51.248;-0.546;2023-01-31T12:36:29;101768;;;9.43;85.19
62632;BME280;48703;51.248;-0.546;2023-01-31T12:39:30;101764;;;9.45;85.41
62632;BME280;48703;51.248;-0.546;2023-01-31T12:42:38;101764;;;9.48;85.04
62632;BME280;48703;51.248;-0.546;2023-01-31T12:45:35;101763;;;9.54;84.66
62632;BME280;48703;51.248;-0.546;2023-01-31T12:48:36;101759;;;9.60;84.68
62632;BME280;48703;51.248;-0.546;2023-01-31T12:51:37;101760;;;9.66;84.71
62632;BME280;48703;51.248;-0.546;2023-01-31T12:54:40;101767;;;9.72;84.06
62632;BME280;48703;51.248;-0.546;2023-01-31T12:57:39;101767;;;9.81;83.94
62632;BME280;48703;51.248;-0.546;2023-01-31T13:00:41;101766;;;9.90;83.73
62632;BME280;48703;51.248;-0.546;2023-01-31T13:03:47;101767;;;9.99;82.55
62632;BME280;48703;51.248;-0.546;2023-01-31T13:06:44;101771;;;10.04;82.08
62632;BME280;48703;51.248;-0.546;2023-01-31T13:09:46;101784;;;10.06;82.18
62632;BME280;48703;51.248;-0.546;2023-01-31T13:12:47;101789;;;10.07;81.29
62632;BME280;48703;51.248;-0.546;2023-01-31T13:15:50;101793;;;10.09;80.69
62632;BME280;48703;51.248;-0.546;2023-01-31T13:18:53;101791;;;10.12;79.79
62632;BME280;48703;51.248;-0.546;2023-01-31T13:21:54;101785;;;10.14;78.50
62632;BME280;48703;51.248;-0.546;2023-01-31T13:24:57;101788;;;10.17;77.53
62632;BME280;48703;51.248;-0.546;2023-01-31T13:27:58;101786;;;10.17;76.93
62632;BME280;48703;51.248;-0.546;2023-01-31T13:30:59;101783;;;10.18;76.44
62632;BME280;48703;51.248;-0.546;2023-01-31T13:34:03;101784;;;10.22;75.99
62632;BME280;48703;51.248;-0.546;2023-01-31T13:37:03;101786;;;10.25;75.97
62632;BME280;48703;51.248;-0.546;2023-01-31T13:40:08;101781;;;10.26;76.14
62632;BME280;48703;51.248;-0.546;2023-01-31T13:43:07;101781;;;10.28;76.55
62632;BME280;48703;51.248;-0.546;2023-01-31T13:46:08;101786;;;10.30;75.39
62632;BME280;48703;51.248;-0.546;2023-01-31T13:49:14;101781;;;10.31;75.60
62632;BME280;48703;51.248;-0.546;2023-01-31T13:52:13;101775;;;10.30;76.07
62632;BME280;48703;51.248;-0.546;2023-01-31T13:55:15;101773;;;10.37;76.84
62632;BME280;48703;51.248;-0.546;2023-01-31T13:58:17;101765;;;10.46;75.75
62632;BME280;48703;51.248;-0.546;2023-01-31T14:01:19;101758;;;10.60;76.42
62632;BME280;48703;51.248;-0.546;2023-01-31T14:04:22;101749;;;10.69;75.56
62632;BME280;48703;51.248;-0.546;2023-01-31T14:07:22;101744;;;10.75;74.93
62632;BME280;48703;51.248;-0.546;2023-01-31T14:10:26;101742;;;10.81;73.82
62632;BME280;48703;51.248;-0.546;2023-01-31T14:13:28;101744;;;10.88;72.16
62632;BME280;48703;51.248;-0.546;2023-01-31T14:16:36;101741;;;10.95;71.18
62632;BME280;48703;51.248;-0.546;2023-01-31T14:19:33;101745;;;11.01;72.55
62632;BME280;48703;51.248;-0.546;2023-01-31T14:21:42;101752;;;11.03;71.23
62632;BME280;48703;51.248;-0.546;2023-01-31T14:24:56;101756;;;11.00;71.04
62632;BME280;48703;51.248;-0.546;2023-01-31T14:27:35;101755;;;10.98;71.30
62632;BME280;48703;51.248;-0.546;2023-01-31T14:30:38;101768;;;10.97;69.12
62632;BME280;48703;51.248;-0.546;2023-01-31T14:33:38;101768;;;10.92;68.04
62632;BME280;48703;51.248;-0.546;2023-01-31T14:36:44;101770;;;10.89;69.64
62632;BME280;48703;51.248;-0.546;2023-01-31T14:39:54;101775;;;10.79;69.40
62632;BME280;48703;51.248;-0.546;2023-01-31T14:42:48;101774;;;10.71;69.28
62632;BME280;48703;51.248;-0.546;2023-01-31T14:45:50;101774;;;10.65;68.83
62632;BME280;48703;51.248;-0.546;2023-01-31T14:48:55;101781;;;10.61;68.85
62632;BME280;48703;51.248;-0.546;2023-01-31T14:51:53;101790;;;10.58;70.60
62632;BME280;48703;51.248;-0.546;2023-01-31T14:54:55;101796;;;10.49;68.96
62632;BME280;48703;51.248;-0.546;2023-01-31T14:57:54;101798;;;10.40;67.72
62632;BME280;48703;51.248;-0.546;2023-01-31T15:00:56;101797;;;10.32;67.58
62632;BME280;48703;51.248;-0.546;2023-01-31T15:03:57;101803;;;10.28;66.85
62632;BME280;48703;51.248;-0.546;2023-01-31T15:06:59;101810;;;10.23;65.60
62632;BME280;48703;51.248;-0.546;2023-01-31T15:10:01;101815;;;10.22;63.51
62632;BME280;48703;51.248;-0.546;2023-01-31T15:13:30;101824;;;10.24;63.17
62632;BME280;48703;51.248;-0.546;2023-01-31T15:16:06;101825;;;10.19;62.56
62632;BME280;48703;51.248;-0.546;2023-01-31T15:19:07;101819;;;10.15;63.28
62632;BME280;48703;51.248;-0.546;2023-01-31T15:22:08;101819;;;10.13;62.55
62632;BME280;48703;51.248;-0.546;2023-01-31T15:25:17;101823;;;10.09;62.08
62632;BME280;48703;51.248;-0.546;2023-01-31T15:28:14;101826;;;10.04;60.97
62632;BME280;48703;51.248;-0.546;2023-01-31T15:31:15;101830;;;9.99;61.17
62632;BME280;48703;51.248;-0.546;2023-01-31T15:34:18;101831;;;9.94;60.52
62632;BME280;48703;51.248;-0.546;2023-01-31T15:37:19;101829;;;9.88;60.97
62632;BME280;48703;51.248;-0.546;2023-01-31T15:40:21;101830;;;9.83;61.13
62632;BME280;48703;51.248;-0.546;2023-01-31T15:43:23;101834;;;9.80;61.89
62632;BME280;48703;51.248;-0.546;2023-01-31T15:46:26;101833;;;9.75;60.58
62632;BME280;48703;51.248;-0.546;2023-01-31T15:49:26;101834;;;9.71;60.85
62632;BME280;48703;51.248;-0.546;2023-01-31T15:52:27;101835;;;9.67;60.64
62632;BME280;48703;51.248;-0.546;2023-01-31T15:55:29;101832;;;9.62;60.23
62632;BME280;48703;51.248;-0.546;2023-01-31T15:58:31;101834;;;9.59;61.00
62632;BME280;48703;51.248;-0.546;2023-01-31T16:01:33;101831;;;9.53;61.05
62632;BME280;48703;51.248;-0.546;2023-01-31T16:04:35;101832;;;9.49;61.86
62632;BME280;48703;51.248;-0.546;2023-01-31T16:07:37;101836;;;9.43;61.62
62632;BME280;48703;51.248;-0.546;2023-01-31T16:10:39;101842;;;9.39;60.91
62632;BME280;48703;51.248;-0.546;2023-01-31T16:13:41;101837;;;9.34;60.69
62632;BME280;48703;51.248;-0.546;2023-01-31T16:16:43;101842;;;9.29;60.94
62632;BME280;48703;51.248;-0.546;2023-01-31T16:19:47;101845;;;9.24;61.66
62632;BME280;48703;51.248;-0.546;2023-01-31T16:22:54;101848;;;9.20;61.31
62632;BME280;48703;51.248;-0.546;2023-01-31T16:25:49;101851;;;9.16;62.93